createdAt,value
2022-08-10T06:51:18.199Z,21.08
2022-08-10T06:53:53.011Z,21.14
2022-08-10T06:56:35.791Z,21.19
2022-08-10T06:59:07.782Z,21.28
2022-08-10T07:01:51.093Z,21.33
2022-08-10T07:04:32.415Z,21.36
2022-08-10T07:07:03.364Z,21.35
2022-08-10T07:09:32.438Z,21.40
2022-08-10T07:12:07.617Z,21.48
2022-08-10T07:14:44.987Z,21.59
2022-08-10T07:17:17.612Z,21.70
2022-08-10T07:19:52.221Z,21.86
2022-08-10T07:23:01.737Z,21.90
2022-08-10T07:25:12.556Z,21.91
2022-08-10T07:28:00.197Z,21.99
2022-08-10T07:30:30.587Z,22.14
2022-08-10T07:32:58.044Z,22.15
2022-08-10T07:35:28.342Z,22.22
2022-08-10T07:37:59.902Z,22.37
2022-08-10T07:40:31.469Z,22.47
2022-08-10T07:43:00.183Z,22.60
2022-08-10T07:45:30.593Z,22.72
2022-08-10T07:48:07.169Z,22.72
2022-08-10T07:50:37.624Z,22.75
2022-08-10T07:53:07.618Z,22.87
2022-08-10T07:56:01.758Z,22.94
2022-08-10T07:58:27.547Z,23.02
2022-08-10T08:00:54.912Z,23.08
2022-08-10T08:03:28.764Z,23.09
2022-08-10T08:06:02.445Z,23.18
2022-08-10T08:08:33.498Z,23.32
2022-08-10T08:11:01.592Z,23.38
2022-08-10T08:13:29.633Z,23.48
2022-08-10T08:16:17.189Z,23.62
2022-08-10T08:19:03.825Z,23.73
2022-08-10T08:24:06.837Z,23.79
2022-08-10T08:24:32.654Z,23.87
2022-08-10T08:27:05.063Z,23.96
2022-08-10T08:29:35.177Z,24.08
2022-08-10T08:32:04.728Z,24.18
2022-08-10T08:34:38.017Z,24.19
2022-08-10T08:37:07.109Z,24.24
2022-08-10T08:39:34.179Z,24.40
2022-08-10T08:42:10.759Z,24.54
2022-08-10T08:45:15.273Z,24.73
2022-08-10T08:48:06.791Z,24.80
2022-08-10T08:50:59.614Z,24.92
2022-08-10T08:54:02.527Z,25.04
2022-08-10T08:57:06.291Z,25.04
2022-08-10T09:00:07.277Z,25.20
2022-08-10T09:02:54.854Z,25.28
2022-08-10T09:05:58.571Z,25.42
2022-08-10T09:08:41.377Z,25.52
2022-08-10T09:11:36.781Z,25.55
2022-08-10T09:14:44.490Z,25.59
2022-08-10T09:17:35.367Z,25.62
2022-08-10T09:20:10.077Z,25.64
2022-08-10T09:22:57.148Z,25.67
2022-08-10T09:25:34.756Z,25.78
2022-08-10T09:28:05.870Z,25.92
2022-08-10T09:31:03.657Z,26.08
2022-08-10T09:36:19.791Z,26.05
2022-08-10T09:36:55.919Z,26.14
2022-08-10T09:40:56.693Z,26.20
2022-08-10T09:43:01.981Z,26.11
2022-08-10T09:45:47.714Z,26.05
2022-08-10T09:48:47.547Z,26.04
2022-08-10T09:51:44.689Z,26.15
2022-08-10T09:54:51.033Z,26.21
2022-08-10T09:57:44.189Z,26.26
2022-08-10T10:00:17.825Z,26.41
2022-08-10T10:03:26.117Z,26.48
2022-08-10T10:05:55.596Z,26.52
2022-08-10T10:08:30.074Z,26.55
2022-08-10T10:11:21.143Z,26.59
2022-08-10T10:15:00.136Z,26.77
2022-08-10T10:17:54.099Z,26.81
2022-08-10T10:20:49.525Z,26.83
2022-08-10T10:23:21.972Z,26.79
2022-08-10T10:26:19.749Z,26.68
2022-08-10T10:31:46.286Z,26.48
2022-08-10T10:34:24.571Z,26.50
2022-08-10T10:36:52.415Z,26.51
2022-08-10T10:39:24.129Z,26.56
2022-08-10T10:42:04.980Z,26.56
2022-08-10T10:45:15.431Z,26.55
2022-08-10T10:48:17.564Z,26.68
2022-08-10T10:51:14.065Z,26.86
2022-08-10T10:53:57.244Z,26.78
2022-08-10T10:56:49.334Z,26.79
2022-08-10T10:59:56.906Z,26.77
2022-08-10T11:02:36.668Z,26.63
2022-08-10T11:05:27.417Z,26.70
2022-08-10T11:08:05.073Z,26.76
2022-08-10T11:10:46.913Z,26.79
2022-08-10T11:14:26.771Z,26.71
2022-08-10T11:16:49.892Z,26.88
2022-08-10T11:20:02.271Z,26.98
2022-08-10T11:22:59.541Z,26.85
2022-08-10T11:25:26.072Z,26.63
2022-08-10T11:28:03.872Z,26.46
2022-08-10T11:30:50.589Z,26.60
2022-08-10T11:34:03.845Z,26.56
2022-08-10T11:36:36.460Z,26.65
2022-08-10T11:39:22.909Z,26.91
2022-08-10T11:42:09.205Z,27.31
2022-08-10T11:44:51.258Z,27.27
2022-08-10T11:47:25.730Z,27.41
2022-08-10T11:50:04.415Z,27.50
2022-08-10T11:52:43.433Z,27.46
2022-08-10T11:55:18.937Z,27.41
2022-08-10T11:57:54.604Z,27.54
2022-08-10T12:00:23.080Z,27.60
2022-08-10T12:02:54.898Z,27.40
2022-08-10T12:05:51.629Z,27.25
2022-08-10T12:10:07.865Z,27.45
2022-08-10T12:11:09.055Z,27.37
2022-08-10T12:14:10.675Z,27.53
2022-08-10T12:16:39.168Z,27.80
2022-08-10T12:19:27.648Z,28.14
2022-08-10T12:22:06.291Z,28.24
2022-08-10T12:24:51.686Z,28.14
2022-08-10T12:27:33.649Z,28.17
2022-08-10T12:30:07.161Z,28.34
2022-08-10T12:32:49.090Z,28.34
2022-08-10T12:35:26.483Z,28.37
2022-08-10T12:38:15.047Z,28.36
2022-08-10T12:40:55.233Z,28.34
2022-08-10T12:44:06.393Z,28.29
2022-08-10T12:46:35.050Z,28.19
2022-08-10T12:49:26.044Z,28.24
2022-08-10T12:52:28.268Z,28.49
2022-08-10T12:54:57.929Z,28.58
2022-08-10T12:57:25.925Z,28.60
2022-08-10T12:59:57.994Z,28.66
2022-08-10T13:02:28.396Z,28.78
2022-08-10T13:04:58.220Z,28.80
2022-08-10T13:08:24.551Z,28.83
2022-08-10T13:10:21.463Z,28.96
2022-08-10T13:12:52.291Z,28.90
2022-08-10T13:15:49.538Z,28.89
2022-08-10T13:18:18.250Z,28.97
2022-08-10T13:20:50.789Z,28.96
2022-08-10T13:23:24.526Z,29.16
2022-08-10T13:25:52.406Z,29.31
2022-08-10T13:28:35.581Z,29.28
2022-08-10T13:31:17.007Z,29.28
2022-08-10T13:34:40.600Z,29.35
2022-08-10T13:36:49.741Z,29.54
2022-08-10T13:39:22.117Z,29.76
2022-08-10T13:41:53.156Z,29.83
2022-08-10T13:44:33.077Z,29.77
2022-08-10T13:47:00.179Z,29.87
2022-08-10T13:49:29.796Z,29.86
2022-08-10T13:51:58.511Z,29.87
2022-08-10T13:54:29.281Z,29.95
2022-08-10T13:56:57.960Z,30.08
2022-08-10T14:00:37.464Z,29.96
2022-08-10T14:02:25.060Z,30.01
2022-08-10T14:04:55.045Z,30.16
2022-08-10T14:07:22.947Z,30.18
2022-08-10T14:09:51.496Z,30.29
2022-08-10T14:12:19.716Z,30.49
2022-08-10T14:15:00.350Z,30.53
2022-08-10T14:17:28.240Z,30.62
2022-08-10T14:19:59.794Z,30.78
2022-08-10T14:22:33.557Z,30.92
2022-08-10T14:25:27.754Z,30.99
2022-08-10T14:28:02.975Z,31.11
2022-08-10T14:30:34.443Z,31.26
2022-08-10T14:33:04.971Z,31.44
2022-08-10T14:36:20.553Z,31.25
2022-08-10T14:38:31.157Z,31.29
2022-08-10T14:41:00.775Z,31.49
2022-08-10T14:43:39.651Z,31.51
2022-08-10T14:46:21.024Z,31.75
2022-08-10T14:48:52.313Z,31.67
2022-08-10T14:51:25.872Z,31.82
2022-08-10T14:53:56.172Z,31.99
2022-08-10T14:56:29.901Z,32.34
2022-08-10T14:59:07.080Z,32.56
2022-08-10T15:01:59.817Z,32.72
2022-08-10T15:04:30.524Z,32.88
2022-08-10T15:07:03.102Z,32.83
2022-08-10T15:09:59.248Z,32.74
2022-08-10T15:12:26.404Z,32.22
2022-08-10T15:14:58.524Z,32.24
2022-08-10T15:17:35.163Z,32.25
2022-08-10T15:20:13.570Z,31.83
2022-08-10T15:22:49.890Z,31.47
2022-08-10T15:25:24.820Z,31.07
2022-08-10T15:28:06.562Z,30.83
2022-08-10T15:30:44.050Z,30.55
2022-08-10T15:34:04.452Z,30.25
2022-08-10T15:37:35.937Z,30.05
2022-08-10T15:40:21.253Z,29.93
2022-08-10T15:42:34.458Z,29.85
2022-08-10T15:45:01.665Z,29.65
2022-08-10T15:47:50.057Z,29.64
2022-08-10T15:50:28.816Z,29.55
2022-08-10T15:53:02.813Z,29.64
2022-08-10T15:55:47.313Z,29.65
2022-08-10T15:58:30.289Z,29.60
2022-08-10T16:02:12.945Z,29.54
2022-08-10T16:04:13.381Z,29.54
2022-08-10T16:06:44.912Z,29.46
2022-08-10T16:10:23.637Z,29.37
2022-08-10T16:12:29.253Z,29.35
2022-08-10T16:15:04.536Z,29.44
2022-08-10T16:17:54.573Z,29.34
2022-08-10T16:20:31.343Z,29.41
2022-08-10T16:23:01.671Z,29.43
2022-08-10T16:25:48.166Z,29.31
2022-08-10T16:28:23.394Z,29.28
2022-08-10T16:30:54.165Z,29.26
2022-08-10T16:33:53.644Z,29.25
2022-08-10T16:36:17.589Z,29.29
2022-08-10T16:38:47.165Z,29.30
2022-08-10T16:41:52.084Z,29.31
2022-08-10T16:44:04.125Z,29.28
2022-08-10T16:46:32.061Z,29.32
2022-08-10T16:49:01.248Z,29.25
2022-08-10T16:51:28.272Z,29.12
2022-08-10T16:53:59.726Z,29.07
2022-08-10T16:56:34.309Z,29.07
2022-08-10T16:59:21.152Z,29.01
2022-08-10T17:01:53.741Z,29.01
2022-08-10T17:04:23.518Z,29.01
2022-08-10T17:06:57.032Z,28.98
2022-08-10T17:09:28.740Z,28.98
2022-08-10T17:11:58.476Z,28.92
2022-08-10T17:14:29.260Z,28.98
2022-08-10T17:17:21.130Z,28.97
2022-08-10T17:19:48.988Z,28.82
2022-08-10T17:22:20.852Z,28.78
2022-08-10T17:24:57.040Z,28.76
2022-08-10T17:28:05.678Z,28.69
2022-08-10T17:30:33.991Z,28.76
2022-08-10T17:33:12.531Z,28.76
2022-08-10T17:35:42.392Z,28.72
2022-08-10T17:38:10.807Z,28.67
2022-08-10T17:40:49.732Z,28.71
2022-08-10T17:43:46.584Z,28.71
2022-08-10T17:46:10.729Z,28.69
2022-08-10T17:48:39.967Z,28.66
2022-08-10T17:51:15.366Z,28.53
2022-08-10T17:53:49.536Z,28.49
2022-08-10T17:56:19.544Z,28.48
2022-08-10T17:58:50.370Z,28.46
2022-08-10T18:01:41.104Z,28.44
2022-08-10T18:04:18.059Z,28.35
2022-08-10T18:06:52.353Z,28.29
2022-08-10T18:09:30.673Z,28.26
2022-08-10T18:12:01.829Z,28.27
2022-08-10T18:14:33.145Z,28.22
2022-08-10T18:17:07.402Z,28.25
2022-08-10T18:19:35.099Z,28.20
2022-08-10T18:22:03.092Z,28.13
2022-08-10T18:24:30.389Z,28.11
2022-08-10T18:27:01.746Z,28.09
2022-08-10T18:29:30.801Z,28.08
2022-08-10T18:32:03.195Z,28.04
2022-08-10T18:34:32.773Z,27.96
2022-08-10T18:37:02.853Z,27.90
2022-08-10T18:39:33.916Z,27.85
2022-08-10T18:42:12.467Z,27.79
2022-08-10T18:44:52.092Z,27.72
2022-08-10T18:47:28.388Z,27.72
2022-08-10T18:50:09.065Z,27.67
2022-08-10T18:52:38.200Z,27.61
2022-08-10T18:55:35.486Z,27.49
2022-08-10T18:58:43.859Z,27.51
2022-08-10T19:01:17.688Z,27.47
2022-08-10T19:04:09.473Z,27.41
2022-08-10T19:06:45.273Z,27.36
2022-08-10T19:10:03.058Z,27.31
2022-08-10T19:12:54.091Z,27.29
2022-08-10T19:15:29.813Z,27.18
2022-08-10T19:18:06.618Z,27.16
2022-08-10T19:20:35.384Z,27.09
2022-08-10T19:23:29.830Z,27.03
2022-08-10T19:26:38.203Z,27.01
2022-08-10T19:30:12.059Z,26.98
2022-08-10T19:32:21.490Z,26.90
2022-08-10T19:35:03.140Z,26.88
2022-08-10T19:37:36.007Z,26.82
2022-08-10T19:40:21.583Z,26.76
2022-08-10T19:43:20.562Z,26.71
2022-08-10T19:46:04.492Z,26.67
2022-08-10T19:48:34.183Z,26.61
2022-08-10T19:51:16.561Z,26.60
2022-08-10T19:54:13.910Z,26.59
2022-08-10T19:56:52.580Z,26.52
2022-08-10T20:00:14.998Z,26.47
2022-08-10T20:02:26.349Z,26.39
2022-08-10T20:05:12.045Z,26.35
2022-08-10T20:07:50.949Z,26.31
2022-08-10T20:10:31.470Z,26.27
2022-08-10T20:13:14.869Z,26.26
2022-08-10T20:15:51.789Z,26.17
2022-08-10T20:18:41.120Z,26.13
2022-08-10T20:21:14.631Z,26.11
2022-08-10T20:24:08.705Z,26.07
2022-08-10T20:26:48.038Z,26.02
2022-08-10T20:29:57.219Z,25.99
2022-08-10T20:32:19.327Z,25.95
2022-08-10T20:34:50.622Z,25.95
2022-08-10T20:38:03.137Z,25.91
2022-08-10T20:40:38.831Z,25.86
2022-08-10T20:43:24.370Z,25.80
2022-08-10T20:46:18.330Z,25.74
2022-08-10T20:48:55.300Z,25.69
2022-08-10T20:51:59.369Z,25.65
2022-08-10T20:54:15.483Z,25.63
2022-08-10T20:57:54.646Z,25.58
2022-08-10T21:00:10.903Z,25.54
2022-08-10T21:03:13.527Z,25.53
2022-08-10T21:05:59.846Z,25.48
2022-08-10T21:08:56.095Z,25.38
2022-08-10T21:11:57.814Z,25.31
2022-08-10T21:15:01.985Z,25.32
2022-08-10T21:17:55.082Z,25.31
2022-08-10T21:20:47.501Z,25.28
2022-08-10T21:23:30.410Z,25.24
2022-08-10T21:26:09.427Z,25.20
2022-08-10T21:28:49.996Z,25.17
2022-08-10T21:31:32.187Z,25.13
2022-08-10T21:34:32.706Z,25.06
2022-08-10T21:37:07.762Z,25.01
2022-08-10T21:40:04.576Z,24.95
2022-08-10T21:43:25.181Z,24.94
2022-08-10T21:46:29.622Z,24.91
2022-08-10T21:49:24.507Z,24.88
2022-08-10T21:52:38.216Z,24.83
2022-08-10T21:55:57.129Z,24.78
2022-08-10T21:58:52.755Z,24.74
2022-08-10T22:01:51.446Z,24.68
2022-08-10T22:04:38.497Z,24.60
2022-08-10T22:07:29.139Z,24.57
2022-08-10T22:10:25.586Z,24.56
2022-08-10T22:13:13.495Z,24.51
2022-08-10T22:16:11.476Z,24.48
2022-08-10T22:19:03.597Z,24.39
2022-08-10T22:22:19.938Z,24.41
2022-08-10T22:25:29.716Z,24.37
2022-08-10T22:28:18.130Z,24.26
2022-08-10T22:31:31.853Z,24.24
2022-08-10T22:34:48.931Z,24.25
2022-08-10T22:37:49.502Z,24.23
2022-08-10T22:40:39.789Z,24.15
2022-08-10T22:43:33.533Z,24.09
2022-08-10T22:46:25.148Z,24.05
2022-08-10T22:49:01.263Z,24.01
2022-08-10T22:51:47.715Z,23.99
2022-08-10T22:54:55.453Z,23.92
2022-08-10T22:57:40.873Z,23.92
2022-08-10T23:00:31.268Z,23.83
2022-08-10T23:03:07.602Z,23.80
2022-08-10T23:05:42.290Z,23.78
2022-08-10T23:08:30.464Z,23.75
2022-08-10T23:11:03.029Z,23.73
2022-08-10T23:13:35.984Z,23.69
2022-08-10T23:16:40.939Z,23.66
2022-08-10T23:19:18.741Z,23.61
2022-08-10T23:22:11.589Z,23.63
2022-08-10T23:24:42.973Z,23.55
2022-08-10T23:27:37.595Z,23.54
2022-08-10T23:30:09.438Z,23.52
2022-08-10T23:32:40.822Z,23.45
2022-08-10T23:36:12.947Z,23.43
2022-08-10T23:38:01.125Z,23.39
2022-08-10T23:40:28.748Z,23.38
2022-08-10T23:42:56.497Z,23.32
2022-08-10T23:45:28.886Z,23.30
2022-08-10T23:48:20.210Z,23.29
2022-08-10T23:50:59.891Z,23.25
2022-08-10T23:53:30.303Z,23.21
2022-08-10T23:56:15.563Z,23.12
2022-08-10T23:58:45.539Z,23.12
